Time;durP1;ratioP1;P1;durP2;ratioP2;P2;SDS_P1;SDS_P2;PMS_P1;PMS_P2;Temp;Humidity;BMP_temperature;BMP_pressure;BME280_temperature;BME280_humidity;BME280_pressure;Samples;Min_cycle;Max_cycle;Signal;HPM_P1;HPM_P2
2021/11/21 00:01:37;;;;;;;;;80.33;62.67;;;;;;;;5161414;27;11587;-81
2021/11/21 00:04:02;;;;;;;;;77.33;58.67;;;;;;;;5142358;27;16701;-83
2021/11/21 00:06:28;;;;;;;;;77.33;59.00;;;;;;;;5162386;27;10528;-82
2021/11/21 00:08:54;;;;;;;;;80.67;59.33;;;;;;;;5161903;27;8864;-81
2021/11/21 00:11:19;;;;;;;;;72.33;59.00;;;;;;;;5162123;27;14274;-81
2021/11/21 00:13:48;;;;;;;;;73.67;59.33;;;;;;;;5142567;27;13777;-81
2021/11/21 00:16:16;;;;;;;;;78.00;60.33;;;;;;;;5161017;27;11942;-81
2021/11/21 00:18:41;;;;;;;;;78.33;57.67;;;;;;;;5161445;27;11649;-81
2021/11/21 00:21:06;;;;;;;;;84.00;62.33;;;;;;;;5161367;27;12240;-80
2021/11/21 00:23:32;;;;;;;;;74.33;59.33;;;;;;;;5161374;27;13646;-82
2021/11/21 00:25:57;;;;;;;;;71.33;56.00;;;;;;;;5161071;27;12187;-82
2021/11/21 00:28:22;;;;;;;;;75.00;59.33;;;;;;;;5161022;27;12730;-81
2021/11/21 00:30:48;;;;;;;;;69.67;55.00;;;;;;;;5160899;27;11394;-82
2021/11/21 00:33:13;;;;;;;;;73.00;58.33;;;;;;;;5142707;27;14037;-81
2021/11/21 00:35:38;;;;;;;;;79.00;56.67;;;;;;;;5161260;27;13194;-81
2021/11/21 00:38:04;;;;;;;;;73.33;57.00;;;;;;;;5161691;27;11396;-81
2021/11/21 00:40:29;;;;;;;;;68.33;56.00;;;;;;;;5161347;27;11603;-81
2021/11/21 00:42:57;;;;;;;;;61.67;49.33;;;;;;;;5161388;27;10374;-81
2021/11/21 00:45:23;;;;;;;;;74.67;58.67;;;;;;;;5161413;27;12286;-82
2021/11/21 00:47:48;;;;;;;;;68.00;54.33;;;;;;;;5161382;27;13530;-82
2021/11/21 00:50:15;;;;;;;;;69.00;56.67;;;;;;;;5161118;27;14718;-83
2021/11/21 00:52:40;;;;;;;;;72.00;53.33;;;;;;;;5161140;27;11648;-83
2021/11/21 00:55:11;;;;;;;;;74.00;57.00;;;;;;;;5160682;27;13276;-81
2021/11/21 00:57:37;;;;;;;;;72.00;57.33;;;;;;;;5160705;27;11882;-82
2021/11/21 01:00:03;;;;;;;;;76.00;58.33;;;;;;;;5141592;27;13745;-82
2021/11/21 01:02:28;;;;;;;;;77.67;58.00;;;;;;;;5161680;27;8862;-82
2021/11/21 01:04:53;;;;;;;;;67.67;52.67;;;;;;;;5160746;27;11632;-82
2021/11/21 01:07:21;;;;;;;;;75.00;57.00;;;;;;;;5164290;27;13846;-83
2021/11/21 01:09:46;;;;;;;;;73.33;57.00;;;;;;;;5164561;27;13516;-82
2021/11/21 01:12:12;;;;;;;;;80.00;59.33;;;;;;;;5163880;27;9110;-84
2021/11/21 01:14:38;;;;;;;;;70.33;55.33;;;;;;;;5164492;27;13494;-84
2021/11/21 01:17:04;;;;;;;;;70.00;57.00;;;;;;;;5164753;27;12257;-83
2021/11/21 01:19:33;;;;;;;;;70.33;58.33;;;;;;;;5164727;27;11120;-83
2021/11/21 01:21:58;;;;;;;;;73.00;57.67;;;;;;;;5165237;27;11546;-82
2021/11/21 01:24:24;;;;;;;;;62.75;49.00;;;;;;;;5164379;27;11875;-81
2021/11/21 01:26:49;;;;;;;;;70.33;56.67;;;;;;;;5145612;27;14031;-82
2021/11/21 01:29:14;;;;;;;;;75.67;58.67;;;;;;;;5164923;27;14030;-81
2021/11/21 01:31:41;;;;;;;;;76.50;57.75;;;;;;;;5164481;27;10345;-82
2021/11/21 01:34:07;;;;;;;;;78.75;61.00;;;;;;;;5164026;27;11994;-82
2021/11/21 01:36:32;;;;;;;;;79.67;60.00;;;;;;;;5164991;27;12372;-82
2021/11/21 01:38:57;;;;;;;;;72.00;57.67;;;;;;;;5164613;27;10503;-82
2021/11/21 01:41:23;;;;;;;;;70.67;56.00;;;;;;;;5164925;27;12730;-81
2021/11/21 01:43:48;;;;;;;;;75.75;56.25;;;;;;;;5164834;27;11679;-81
2021/11/21 01:46:13;;;;;;;;;75.00;59.25;;;;;;;;5164470;27;11931;-82
2021/11/21 01:48:39;;;;;;;;;74.75;56.50;;;;;;;;5164215;27;10089;-83
2021/11/21 01:51:08;;;;;;;;;69.00;52.33;;;;;;;;5164269;27;11525;-83
2021/11/21 01:53:33;;;;;;;;;78.67;58.33;;;;;;;;5163990;27;13572;-82
2021/11/21 01:55:59;;;;;;;;;73.25;57.25;;;;;;;;5164378;27;13677;-83
2021/11/21 01:58:24;;;;;;;;;75.33;57.33;;;;;;;;5163996;27;10522;-83
2021/11/21 02:00:50;;;;;;;;;69.00;53.33;;;;;;;;5164399;27;8826;-83
2021/11/21 02:03:17;;;;;;;;;75.67;58.33;;;;;;;;5164375;27;12750;-82
2021/11/21 02:05:43;;;;;;;;;80.33;60.67;;;;;;;;5145569;27;14382;-82
2021/11/21 02:08:09;;;;;;;;;75.00;58.75;;;;;;;;5164266;27;13789;-82
2021/11/21 02:10:35;;;;;;;;;65.67;53.00;;;;;;;;5164288;27;13895;-82
2021/11/21 02:13:01;;;;;;;;;75.00;58.00;;;;;;;;5163944;27;13804;-83
2021/11/21 02:15:26;;;;;;;;;75.00;58.00;;;;;;;;5164153;27;12363;-81
2021/11/21 02:17:52;;;;;;;;;72.33;58.00;;;;;;;;5164726;27;8783;-82
2021/11/21 02:20:22;;;;;;;;;79.75;61.00;;;;;;;;5164211;27;9586;-82
2021/11/21 02:22:47;;;;;;;;;74.00;58.00;;;;;;;;5164249;27;12253;-83
2021/11/21 02:25:12;;;;;;;;;75.50;57.25;;;;;;;;5145295;27;13263;-81
2021/11/21 02:27:38;;;;;;;;;77.75;60.75;;;;;;;;5163852;27;11374;-81
2021/11/21 02:30:06;;;;;;;;;74.75;56.50;;;;;;;;5163744;27;11634;-82
2021/11/21 02:32:31;;;;;;;;;68.50;54.00;;;;;;;;5164004;27;12490;-84
2021/11/21 02:34:57;;;;;;;;;74.50;57.75;;;;;;;;5144588;27;15629;-83
2021/11/21 02:37:22;;;;;;;;;75.75;58.75;;;;;;;;5163919;27;13776;-81
2021/11/21 02:39:47;;;;;;;;;74.75;58.75;;;;;;;;5163669;27;10480;-80
2021/11/21 02:42:29;;;;;;;;;76.00;58.75;;;;;;;;5163768;27;8772;-82
2021/11/21 02:44:55;;;;;;;;;70.75;56.50;;;;;;;;5163157;27;10336;-80
2021/11/21 02:47:20;;;;;;;;;75.50;57.75;;;;;;;;5162479;27;12373;-81
2021/11/21 02:49:46;;;;;;;;;80.00;61.00;;;;;;;;5163721;27;12157;-81
2021/11/21 02:52:11;;;;;;;;;79.50;60.75;;;;;;;;5163948;27;13792;-83
2021/11/21 02:54:36;;;;;;;;;74.50;56.50;;;;;;;;5163636;27;13571;-80
2021/11/21 02:57:02;;;;;;;;;70.00;56.50;;;;;;;;5163575;27;12206;-81
2021/11/21 02:59:27;;;;;;;;;76.25;59.50;;;;;;;;5163383;27;9938;-81
2021/11/21 03:01:53;;;;;;;;;82.50;62.00;;;;;;;;5163178;27;10335;-81
2021/11/21 03:04:22;;;;;;;;;73.25;56.50;;;;;;;;5162609;27;13316;-80
2021/11/21 03:06:47;;;;;;;;;78.75;60.25;;;;;;;;5163344;27;14479;-80
2021/11/21 03:09:19;;;;;;;;;74.00;59.25;;;;;;;;5162787;27;12680;-82
2021/11/21 03:11:44;;;;;;;;;73.00;59.00;;;;;;;;5162736;27;13035;-83
2021/11/21 03:14:09;;;;;;;;;77.00;59.25;;;;;;;;5162491;27;11866;-83
2021/11/21 03:16:35;;;;;;;;;75.00;58.00;;;;;;;;5144474;27;12352;-82
2021/11/21 03:19:00;;;;;;;;;79.00;59.00;;;;;;;;5163347;27;12653;-82
2021/11/21 03:21:26;;;;;;;;;78.00;59.50;;;;;;;;5144327;27;9303;-83
2021/11/21 03:23:52;;;;;;;;;73.50;58.00;;;;;;;;5162455;27;12007;-83
2021/11/21 03:26:19;;;;;;;;;62.00;49.75;;;;;;;;5143866;27;13466;-83
2021/11/21 03:28:44;;;;;;;;;76.00;57.75;;;;;;;;5161097;27;14937;-83
2021/11/21 03:31:10;;;;;;;;;80.00;60.00;;;;;;;;5163380;27;10654;-82
2021/11/21 03:33:35;;;;;;;;;79.00;62.25;;;;;;;;5162197;27;13492;-83
2021/11/21 03:36:00;;;;;;;;;77.50;61.00;;;;;;;;5162968;27;13423;-82
2021/11/21 03:38:26;;;;;;;;;74.00;57.25;;;;;;;;5143632;27;13339;-83
2021/11/21 03:40:51;;;;;;;;;75.25;57.50;;;;;;;;5162217;27;12760;-83
2021/11/21 03:43:16;;;;;;;;;70.00;57.50;;;;;;;;5162779;27;11793;-83
2021/11/21 03:45:42;;;;;;;;;72.50;56.75;;;;;;;;5162302;27;8874;-82
2021/11/21 03:48:07;;;;;;;;;80.50;60.75;;;;;;;;5162316;27;11919;-82
2021/11/21 03:50:32;;;;;;;;;73.00;59.25;;;;;;;;5142767;27;12338;-82
2021/11/21 03:52:58;;;;;;;;;76.75;59.00;;;;;;;;5162113;27;12610;-82
2021/11/21 03:55:23;;;;;;;;;74.50;59.50;;;;;;;;5161918;27;11373;-82
2021/11/21 03:57:49;;;;;;;;;76.00;58.00;;;;;;;;5161755;27;11430;-82
2021/11/21 04:00:16;;;;;;;;;78.25;61.75;;;;;;;;5162339;27;11890;-82
2021/11/21 04:02:42;;;;;;;;;76.75;60.00;;;;;;;;5162395;27;12266;-82
2021/11/21 04:05:08;;;;;;;;;85.75;63.50;;;;;;;;5161355;27;11679;-83
2021/11/21 04:07:34;;;;;;;;;83.00;61.00;;;;;;;;5161818;27;14982;-82
2021/11/21 04:10:00;;;;;;;;;76.50;58.50;;;;;;;;5162698;27;11844;-83
2021/11/21 04:12:25;;;;;;;;;79.50;61.50;;;;;;;;5162246;27;13279;-82
2021/11/21 04:14:50;;;;;;;;;75.25;58.75;;;;;;;;5162251;27;9518;-83
2021/11/21 04:17:16;;;;;;;;;77.75;61.25;;;;;;;;5162101;27;12632;-83
2021/11/21 04:19:41;;;;;;;;;75.50;59.25;;;;;;;;5142983;27;12118;-82
2021/11/21 04:22:06;;;;;;;;;79.25;61.75;;;;;;;;5142594;27;14277;-83
2021/11/21 04:24:32;;;;;;;;;81.25;62.50;;;;;;;;5142826;27;13516;-82
2021/11/21 04:26:57;;;;;;;;;75.25;58.50;;;;;;;;5161621;27;13213;-83
2021/11/21 04:29:22;;;;;;;;;77.25;61.25;;;;;;;;5161598;27;10362;-82
2021/11/21 04:31:50;;;;;;;;;69.50;52.50;;;;;;;;5161586;27;12626;-82
2021/11/21 04:34:16;;;;;;;;;77.00;60.50;;;;;;;;5142332;27;16760;-82
2021/11/21 04:36:41;;;;;;;;;79.50;61.50;;;;;;;;5161734;27;12224;-81
2021/11/21 04:39:06;;;;;;;;;74.50;58.50;;;;;;;;5142286;27;12900;-83
2021/11/21 04:41:32;;;;;;;;;85.25;63.50;;;;;;;;5164675;27;9758;-81
2021/11/21 04:43:57;;;;;;;;;76.25;59.00;;;;;;;;5165196;27;13359;-79
2021/11/21 04:46:23;;;;;;;;;74.25;58.50;;;;;;;;5164950;27;13546;-81
2021/11/21 04:48:49;;;;;;;;;79.25;61.50;;;;;;;;5165618;27;11845;-82
2021/11/21 04:51:14;;;;;;;;;81.25;62.25;;;;;;;;5165464;27;10085;-82
2021/11/21 04:53:40;;;;;;;;;76.00;59.50;;;;;;;;5146324;27;15286;-82
2021/11/21 04:56:05;;;;;;;;;77.25;60.25;;;;;;;;5165184;27;13807;-82
2021/11/21 04:58:31;;;;;;;;;77.25;59.25;;;;;;;;5165023;27;12494;-82
2021/11/21 05:00:56;;;;;;;;;76.75;59.50;;;;;;;;5164918;27;8768;-82
2021/11/21 05:03:22;;;;;;;;;76.00;58.00;;;;;;;;5164837;27;11510;-84
2021/11/21 07:21:17;;;;;;;;;58.00;45.00;;;;;;;;5217125;27;77868;-76
2021/11/21 07:23:43;;;;;;;;;58.33;46.33;;;;;;;;5199690;27;23754;-77
2021/11/21 07:26:08;;;;;;;;;60.33;46.67;;;;;;;;5183747;27;10413;-75
2021/11/21 07:28:33;;;;;;;;;67.33;50.33;;;;;;;;5178442;27;13280;-76
2021/11/21 07:30:59;;;;;;;;;63.00;51.00;;;;;;;;5178403;27;12437;-76
2021/11/21 07:33:24;;;;;;;;;65.33;51.33;;;;;;;;5188589;27;11775;-76
2021/11/21 07:35:52;;;;;;;;;63.67;51.33;;;;;;;;5179834;27;11705;-76
2021/11/21 07:38:19;;;;;;;;;61.00;48.00;;;;;;;;5199360;27;9257;-75
2021/11/21 07:40:44;;;;;;;;;68.00;52.67;;;;;;;;5199609;27;12282;-76
2021/11/21 07:43:09;;;;;;;;;64.33;50.67;;;;;;;;5199085;27;12356;-75
2021/11/21 07:45:35;;;;;;;;;52.33;43.33;;;;;;;;5199309;27;10600;-75
2021/11/21 07:48:00;;;;;;;;;55.33;46.00;;;;;;;;5199451;27;13357;-75
2021/11/21 07:50:25;;;;;;;;;59.00;50.00;;;;;;;;5199342;27;11699;-76
2021/11/21 07:52:50;;;;;;;;;63.00;50.00;;;;;;;;5199182;27;11355;-76
2021/11/21 07:55:16;;;;;;;;;61.00;50.00;;;;;;;;5190175;27;9475;-75
2021/11/21 07:57:41;;;;;;;;;53.00;46.00;;;;;;;;5187401;27;8837;-76
2021/11/21 08:00:10;;;;;;;;;60.67;49.00;;;;;;;;5177945;27;10557;-76
2021/11/21 08:02:36;;;;;;;;;55.67;46.33;;;;;;;;5106614;27;12453;-76
2021/11/21 08:05:01;;;;;;;;;55.67;46.33;;;;;;;;5136684;27;13413;-76
2021/11/21 08:07:26;;;;;;;;;48.67;41.00;;;;;;;;5083600;27;12020;-76
2021/11/21 08:09:52;;;;;;;;;56.00;44.00;;;;;;;;5157431;27;13292;-75
2021/11/21 08:12:17;;;;;;;;;59.00;46.67;;;;;;;;5157442;27;13404;-76
2021/11/21 08:14:42;;;;;;;;;56.00;46.00;;;;;;;;5153791;27;12334;-76
2021/11/21 08:17:08;;;;;;;;;63.00;51.33;;;;;;;;5156908;27;11397;-75
2021/11/21 08:19:34;;;;;;;;;66.00;50.67;;;;;;;;5156475;27;13271;-75
2021/11/21 08:22:00;;;;;;;;;63.00;51.67;;;;;;;;5172713;27;12059;-75
2021/11/21 08:24:25;;;;;;;;;59.67;49.33;;;;;;;;5156613;27;8782;-79
2021/11/21 08:26:51;;;;;;;;;64.33;53.00;;;;;;;;5156371;27;13416;-78
2021/11/21 08:29:16;;;;;;;;;62.00;51.00;;;;;;;;5155287;27;13248;-74
2021/11/21 08:31:42;;;;;;;;;59.67;48.00;;;;;;;;5147899;27;10507;-74
2021/11/21 08:34:08;;;;;;;;;61.00;49.33;;;;;;;;5142506;27;12455;-74
2021/11/21 08:36:34;;;;;;;;;62.67;49.67;;;;;;;;5142517;27;13261;-73
2021/11/21 08:38:59;;;;;;;;;54.67;45.00;;;;;;;;5142605;27;11365;-74
2021/11/21 08:41:24;;;;;;;;;58.33;47.33;;;;;;;;5142282;27;13875;-73
2021/11/21 08:43:50;;;;;;;;;47.67;42.67;;;;;;;;5055522;27;12128;-73
2021/11/21 08:46:15;;;;;;;;;60.00;49.00;;;;;;;;5118056;27;13591;-78
2021/11/21 08:48:40;;;;;;;;;62.00;51.00;;;;;;;;5142258;27;13530;-79
2021/11/21 08:51:05;;;;;;;;;58.33;48.33;;;;;;;;5123322;27;11924;-76
2021/11/21 08:53:31;;;;;;;;;58.67;48.33;;;;;;;;5141914;27;13287;-80
2021/11/21 08:55:56;;;;;;;;;61.00;50.00;;;;;;;;5142631;27;8802;-85
2021/11/21 08:58:21;;;;;;;;;76.67;57.00;;;;;;;;5141665;27;13808;-75
2021/11/21 09:00:47;;;;;;;;;67.00;52.67;;;;;;;;5140930;27;12987;-76
2021/11/21 09:03:12;;;;;;;;;64.00;52.33;;;;;;;;5141090;27;13279;-78
2021/11/21 09:05:37;;;;;;;;;62.00;50.00;;;;;;;;5082821;27;13082;-73
2021/11/21 09:08:03;;;;;;;;;61.33;50.33;;;;;;;;5142213;27;11419;-78
2021/11/21 09:10:28;;;;;;;;;68.00;51.33;;;;;;;;5135993;27;11429;-79
2021/11/21 09:12:54;;;;;;;;;63.00;51.00;;;;;;;;5121966;28;10618;-75
2021/11/21 09:15:21;;;;;;;;;68.33;55.00;;;;;;;;5123043;28;11643;-82
2021/11/21 09:17:50;;;;;;;;;65.33;53.33;;;;;;;;5126132;27;11077;-80
2021/11/21 09:20:18;;;;;;;;;73.33;57.00;;;;;;;;5140434;27;11476;-81
2021/11/21 09:22:43;;;;;;;;;71.33;55.33;;;;;;;;5138861;27;13993;-81
2021/11/21 09:25:09;;;;;;;;;69.33;54.33;;;;;;;;5141401;27;11393;-76
2021/11/21 09:27:35;;;;;;;;;68.67;53.33;;;;;;;;5140722;27;10716;-78
2021/11/21 09:30:01;;;;;;;;;73.33;57.00;;;;;;;;5122671;27;13716;-77
2021/11/21 09:32:26;;;;;;;;;72.67;55.33;;;;;;;;5140261;27;13456;-78
2021/11/21 09:34:52;;;;;;;;;74.00;58.67;;;;;;;;5141067;27;11351;-87
2021/11/21 09:37:17;;;;;;;;;74.00;59.33;;;;;;;;5140761;27;11458;-82
2021/11/21 09:39:45;;;;;;;;;69.33;55.33;;;;;;;;5140720;27;8910;-81
2021/11/21 09:42:10;;;;;;;;;65.00;50.67;;;;;;;;5142206;27;12285;-81
2021/11/21 09:44:35;;;;;;;;;69.00;54.00;;;;;;;;5122918;27;14776;-80
2021/11/21 09:47:01;;;;;;;;;69.67;54.00;;;;;;;;5142571;27;12525;-83
2021/11/21 09:49:27;;;;;;;;;69.00;54.33;;;;;;;;5141262;27;8902;-80
2021/11/21 09:51:53;;;;;;;;;69.33;54.00;;;;;;;;5140890;27;9668;-80
2021/11/21 09:54:18;;;;;;;;;70.67;56.33;;;;;;;;5139589;27;9358;-80
2021/11/21 09:56:44;;;;;;;;;73.00;57.00;;;;;;;;5127300;27;15490;-80
2021/11/21 09:59:10;;;;;;;;;66.33;54.67;;;;;;;;5095064;27;11797;-81
2021/11/21 10:01:35;;;;;;;;;65.67;52.33;;;;;;;;5142029;27;13500;-83
2021/11/21 10:04:01;;;;;;;;;69.00;53.33;;;;;;;;5141628;27;11370;-89
2021/11/21 10:06:35;;;;;;;;;69.33;53.33;;;;;;;;5141403;27;10511;-74
2021/11/21 10:09:01;;;;;;;;;69.33;53.67;;;;;;;;5142043;27;8766;-88
2021/11/21 10:11:26;;;;;;;;;61.00;50.00;;;;;;;;5123311;27;8817;-85
2021/11/21 10:13:55;;;;;;;;;63.33;50.00;;;;;;;;5142535;27;11876;-87
2021/11/21 10:16:23;;;;;;;;;66.00;53.00;;;;;;;;5142633;27;9156;-88
2021/11/21 10:19:03;;;;;;;;;65.67;52.00;;;;;;;;5122693;27;10968;-84
2021/11/21 10:21:29;;;;;;;;;67.00;56.00;;;;;;;;5141106;27;11000;-86
2021/11/21 10:24:13;;;;;;;;;69.33;54.67;;;;;;;;5141427;27;10328;-80
2021/11/21 10:26:39;;;;;;;;;67.33;53.33;;;;;;;;5141011;27;12566;-81
2021/11/21 10:29:27;;;;;;;;;61.67;52.00;;;;;;;;5141453;27;12062;-79
2021/11/21 10:31:52;;;;;;;;;62.33;51.00;;;;;;;;5132512;27;11700;-81
2021/11/21 10:34:18;;;;;;;;;69.67;53.00;;;;;;;;5122819;27;10890;-87
2021/11/21 10:36:43;;;;;;;;;67.67;52.67;;;;;;;;5141664;27;10532;-85
2021/11/21 10:39:09;;;;;;;;;70.33;54.00;;;;;;;;5140480;27;12509;-83
2021/11/21 10:41:38;;;;;;;;;71.33;53.67;;;;;;;;5139065;27;13440;-82
2021/11/21 10:44:05;;;;;;;;;74.00;58.33;;;;;;;;5141544;27;11495;-81
2021/11/21 10:46:34;;;;;;;;;69.00;54.00;;;;;;;;5122343;27;12006;-85
2021/11/21 10:49:14;;;;;;;;;70.00;54.67;;;;;;;;5140658;27;13706;-76
2021/11/21 10:51:40;;;;;;;;;71.00;55.00;;;;;;;;5140835;27;14579;-77
2021/11/21 10:54:25;;;;;;;;;68.00;54.33;;;;;;;;5140252;27;11496;-76
2021/11/21 10:56:52;;;;;;;;;69.67;55.00;;;;;;;;5139204;27;13474;-75
2021/11/21 10:59:37;;;;;;;;;69.67;55.67;;;;;;;;5140114;27;11696;-74
2021/11/21 11:02:22;;;;;;;;;70.25;56.00;;;;;;;;5122103;27;8935;-76
2021/11/21 11:05:03;;;;;;;;;65.67;52.67;;;;;;;;5136618;27;13563;-73
2021/11/21 11:07:29;;;;;;;;;69.67;55.33;;;;;;;;5138280;27;13925;-74
2021/11/21 11:09:55;;;;;;;;;70.00;54.33;;;;;;;;5140890;27;11674;-72
2021/11/21 16:45:15;;;;;;;;;78.33;61.67;;;;;;;;5216735;27;78847;-76
2021/11/21 16:47:43;;;;;;;;;75.67;60.00;;;;;;;;5134671;27;23789;-76
2021/11/21 16:50:09;;;;;;;;;68.67;55.00;;;;;;;;5174298;27;11709;-82
2021/11/21 16:52:35;;;;;;;;;67.33;53.33;;;;;;;;5173978;27;10415;-83
2021/11/21 16:55:00;;;;;;;;;63.33;51.67;;;;;;;;5170202;27;11464;-78
2021/11/21 16:57:25;;;;;;;;;68.33;54.00;;;;;;;;5138848;27;13041;-77
2021/11/21 16:59:51;;;;;;;;;68.33;52.67;;;;;;;;5157548;27;11417;-76
2021/11/21 17:02:16;;;;;;;;;69.67;53.33;;;;;;;;5159130;27;8853;-74
2021/11/21 17:04:41;;;;;;;;;60.00;49.67;;;;;;;;5146029;27;11732;-76
2021/11/21 17:07:07;;;;;;;;;61.00;48.67;;;;;;;;5165503;27;12600;-80
2021/11/21 17:09:35;;;;;;;;;66.67;52.67;;;;;;;;5156137;27;10943;-77
2021/11/21 17:12:08;;;;;;;;;58.00;47.33;;;;;;;;5167887;27;11484;-78
2021/11/21 17:14:33;;;;;;;;;69.00;55.67;;;;;;;;5146058;27;13840;-78
2021/11/21 17:16:59;;;;;;;;;63.67;52.00;;;;;;;;5160884;27;13270;-84
2021/11/21 17:19:25;;;;;;;;;69.00;52.00;;;;;;;;5161703;27;11638;-81
2021/11/21 17:21:51;;;;;;;;;76.00;58.67;;;;;;;;5157725;27;9213;-81
2021/11/21 17:24:16;;;;;;;;;70.00;53.67;;;;;;;;5157128;27;13633;-77
2021/11/21 17:26:42;;;;;;;;;69.33;53.33;;;;;;;;5157970;27;8766;-75
2021/11/21 17:29:08;;;;;;;;;63.00;51.33;;;;;;;;5156822;27;14987;-78
2021/11/21 17:31:38;;;;;;;;;64.33;52.00;;;;;;;;5138113;27;12120;-75
2021/11/21 17:34:03;;;;;;;;;64.00;50.00;;;;;;;;5157330;27;11663;-76
2021/11/21 17:36:29;;;;;;;;;60.00;49.33;;;;;;;;5157382;27;9637;-77
2021/11/21 17:38:54;;;;;;;;;60.33;51.00;;;;;;;;5156766;27;12396;-78
2021/11/21 17:41:21;;;;;;;;;65.67;52.00;;;;;;;;5156516;27;12568;-78
2021/11/21 17:43:46;;;;;;;;;63.00;48.33;;;;;;;;5155938;27;10420;-77
2021/11/21 17:46:12;;;;;;;;;61.33;49.00;;;;;;;;5156615;27;13401;-76
2021/11/21 17:48:37;;;;;;;;;60.67;50.33;;;;;;;;5157003;27;11358;-78
2021/11/21 17:51:04;;;;;;;;;53.33;44.67;;;;;;;;5158939;27;12357;-90
2021/11/21 17:53:30;;;;;;;;;47.25;39.00;;;;;;;;5139753;27;15574;-77
2021/11/21 17:56:00;;;;;;;;;57.00;46.50;;;;;;;;5145430;27;13519;-78
2021/11/21 17:58:26;;;;;;;;;55.75;45.75;;;;;;;;5162186;27;13493;-77
2021/11/21 18:00:52;;;;;;;;;59.33;49.00;;;;;;;;5162561;27;11461;-78
2021/11/21 18:03:17;;;;;;;;;58.00;45.50;;;;;;;;5162747;27;11606;-78
2021/11/21 18:05:42;;;;;;;;;52.75;43.75;;;;;;;;5162747;27;11430;-78
2021/11/21 18:08:08;;;;;;;;;63.00;48.33;;;;;;;;5162729;27;11545;-78
2021/11/21 18:10:33;;;;;;;;;57.67;46.67;;;;;;;;5162837;27;12232;-77
2021/11/21 18:12:59;;;;;;;;;51.33;45.33;;;;;;;;5153902;27;13488;-77
2021/11/21 18:15:25;;;;;;;;;53.00;42.50;;;;;;;;5152914;27;11702;-76
2021/11/21 18:17:52;;;;;;;;;54.50;46.25;;;;;;;;5162813;27;11995;-78
2021/11/21 18:20:18;;;;;;;;;52.75;43.50;;;;;;;;5163796;27;11647;-78
2021/11/21 18:22:43;;;;;;;;;61.00;43.25;;;;;;;;5163176;27;11765;-78
2021/11/21 18:25:09;;;;;;;;;54.75;44.00;;;;;;;;5163458;27;13518;-78
2021/11/21 18:27:34;;;;;;;;;59.00;46.75;;;;;;;;5163505;27;13246;-77
2021/11/21 18:30:01;;;;;;;;;57.00;44.00;;;;;;;;5163136;27;11436;-79
2021/11/21 18:32:26;;;;;;;;;55.00;45.00;;;;;;;;5162605;27;11848;-77
2021/11/21 18:34:53;;;;;;;;;52.50;41.00;;;;;;;;5162747;27;11512;-80
2021/11/21 18:37:18;;;;;;;;;53.00;43.25;;;;;;;;5163342;27;10412;-77
2021/11/21 18:39:46;;;;;;;;;48.25;42.25;;;;;;;;5161924;27;11511;-83
2021/11/21 18:42:11;;;;;;;;;54.50;42.00;;;;;;;;5149883;27;13757;-82
2021/11/21 18:44:42;;;;;;;;;45.50;41.00;;;;;;;;5148584;27;13473;-83
2021/11/21 18:47:10;;;;;;;;;54.75;43.00;;;;;;;;5148237;27;10710;-80
2021/11/21 18:49:35;;;;;;;;;56.75;44.25;;;;;;;;5150062;27;12593;-82
2021/11/21 18:52:03;;;;;;;;;58.50;47.50;;;;;;;;5152062;27;11490;-81
2021/11/21 18:54:28;;;;;;;;;59.75;49.00;;;;;;;;5150950;27;11654;-83
2021/11/21 18:56:53;;;;;;;;;53.75;44.25;;;;;;;;5150645;27;11573;-82
2021/11/21 18:59:21;;;;;;;;;60.67;48.67;;;;;;;;5149371;27;11467;-82
2021/11/21 19:01:53;;;;;;;;;56.25;46.50;;;;;;;;5152036;27;13662;-82
2021/11/21 19:04:20;;;;;;;;;50.00;43.00;;;;;;;;5149467;27;13508;-80
2021/11/21 19:06:47;;;;;;;;;51.50;42.25;;;;;;;;5149494;27;11584;-80
2021/11/21 19:09:13;;;;;;;;;54.75;43.00;;;;;;;;5150244;27;12006;-80
2021/11/21 19:11:38;;;;;;;;;54.25;44.50;;;;;;;;5149524;27;11567;-74
2021/11/21 19:14:03;;;;;;;;;58.00;44.25;;;;;;;;5151682;27;10432;-73
2021/11/21 19:16:29;;;;;;;;;55.50;45.00;;;;;;;;5150898;27;11622;-73
2021/11/21 19:18:56;;;;;;;;;56.75;43.75;;;;;;;;5152857;27;11413;-72
2021/11/21 19:21:21;;;;;;;;;54.75;45.75;;;;;;;;5151921;27;12628;-77
2021/11/21 19:23:46;;;;;;;;;51.25;42.25;;;;;;;;5149369;27;11523;-74
2021/11/21 19:26:12;;;;;;;;;54.00;44.00;;;;;;;;5149790;27;11052;-77
2021/11/21 19:28:37;;;;;;;;;51.25;41.00;;;;;;;;5146607;27;11413;-75
2021/11/21 19:31:03;;;;;;;;;57.50;45.50;;;;;;;;5143193;27;10436;-75
2021/11/21 19:33:28;;;;;;;;;54.25;43.50;;;;;;;;5142542;27;11844;-76
2021/11/21 19:35:54;;;;;;;;;53.25;41.50;;;;;;;;5150135;27;10965;-81
2021/11/21 19:38:21;;;;;;;;;51.00;42.25;;;;;;;;5149927;27;8802;-77
2021/11/21 19:40:46;;;;;;;;;52.33;42.67;;;;;;;;5150875;27;13053;-75
2021/11/21 19:43:11;;;;;;;;;53.00;43.33;;;;;;;;5150911;27;11629;-74
2021/11/21 19:45:37;;;;;;;;;52.67;43.00;;;;;;;;5140328;27;11395;-76
2021/11/21 19:48:03;;;;;;;;;57.33;46.00;;;;;;;;5139326;27;12159;-73
2021/11/21 19:50:29;;;;;;;;;60.00;47.33;;;;;;;;5120739;27;12735;-80
2021/11/21 19:52:55;;;;;;;;;50.25;43.00;;;;;;;;5122478;27;16657;-74
2021/11/21 19:55:22;;;;;;;;;56.67;48.00;;;;;;;;5122255;27;16126;-75
2021/11/21 19:57:47;;;;;;;;;58.67;45.33;;;;;;;;5141218;27;10159;-75
2021/11/21 20:00:15;;;;;;;;;57.00;48.00;;;;;;;;5140804;27;11501;-78
2021/11/21 20:02:42;;;;;;;;;61.67;49.00;;;;;;;;5141184;27;11625;-76
2021/11/21 20:05:08;;;;;;;;;57.00;47.33;;;;;;;;5121801;27;12690;-76
2021/11/21 20:07:37;;;;;;;;;58.00;48.00;;;;;;;;5122159;27;15288;-75
2021/11/21 20:10:14;;;;;;;;;54.33;45.00;;;;;;;;5138836;27;13615;-75
2021/11/21 20:12:39;;;;;;;;;55.00;45.00;;;;;;;;5140011;27;11477;-75
2021/11/21 20:15:06;;;;;;;;;55.33;45.33;;;;;;;;5140356;27;11487;-77
2021/11/21 20:17:31;;;;;;;;;68.67;51.67;;;;;;;;5140498;27;8754;-76
2021/11/21 20:19:57;;;;;;;;;65.67;54.00;;;;;;;;5140211;27;13332;-75
2021/11/21 20:22:22;;;;;;;;;68.33;53.00;;;;;;;;5140598;27;11423;-77
2021/11/21 20:24:47;;;;;;;;;75.67;58.33;;;;;;;;5140288;27;10354;-76
2021/11/21 20:27:19;;;;;;;;;65.00;50.67;;;;;;;;5140285;27;13221;-78
2021/11/21 20:29:44;;;;;;;;;73.67;59.00;;;;;;;;5140135;27;13740;-78
2021/11/21 20:34:53;;;;;;;;;65.00;52.33;;;;;;;;5140587;27;11389;-76
2021/11/21 20:37:20;;;;;;;;;74.33;58.67;;;;;;;;5139832;27;12196;-76
2021/11/21 20:39:45;;;;;;;;;76.00;60.67;;;;;;;;5140140;27;13643;-77
2021/11/21 20:42:14;;;;;;;;;74.00;58.33;;;;;;;;5150786;27;11622;-76
2021/11/21 20:44:40;;;;;;;;;73.67;59.33;;;;;;;;5160569;27;12309;-75
2021/11/21 20:47:05;;;;;;;;;77.67;60.33;;;;;;;;5150303;27;10546;-74
2021/11/21 20:49:31;;;;;;;;;81.67;65.33;;;;;;;;5146790;27;9219;-75
2021/11/21 20:51:59;;;;;;;;;74.00;59.33;;;;;;;;5140365;27;10382;-79
2021/11/21 20:54:25;;;;;;;;;72.33;57.67;;;;;;;;5140107;27;13566;-79
2021/11/21 20:56:50;;;;;;;;;73.67;58.67;;;;;;;;5139493;27;11621;-77
2021/11/21 20:59:17;;;;;;;;;75.67;60.00;;;;;;;;5125422;27;10820;-78
2021/11/21 21:01:43;;;;;;;;;83.67;64.67;;;;;;;;5161207;27;12309;-76
2021/11/21 21:04:08;;;;;;;;;86.25;70.75;;;;;;;;5160701;27;13218;-76
2021/11/21 21:06:35;;;;;;;;;83.75;72.00;;;;;;;;5153873;27;12251;-76
2021/11/21 21:09:01;;;;;;;;;90.75;76.50;;;;;;;;5154602;27;11457;-76
2021/11/21 21:11:26;;;;;;;;;101.50;95.00;;;;;;;;5155193;27;13407;-76
2021/11/21 21:13:52;;;;;;;;;103.75;91.00;;;;;;;;5138814;27;24386;-73
2021/11/21 21:16:17;;;;;;;;;104.25;90.25;;;;;;;;5141906;27;10407;-73
2021/11/21 21:18:43;;;;;;;;;98.50;91.75;;;;;;;;5149092;27;10393;-74
2021/11/21 21:21:09;;;;;;;;;98.75;90.50;;;;;;;;5130283;27;23858;-76
2021/11/21 21:23:40;;;;;;;;;98.00;92.25;;;;;;;;5154474;27;10634;-73
2021/11/21 21:26:06;;;;;;;;;98.25;87.25;;;;;;;;5160664;27;10456;-73
2021/11/21 21:28:32;;;;;;;;;124.25;115.00;;;;;;;;5160620;27;11459;-74
2021/11/21 21:30:57;;;;;;;;;128.50;116.75;;;;;;;;5140388;27;25622;-74
2021/11/21 21:33:23;;;;;;;;;107.50;100.50;;;;;;;;5151199;27;11618;-77
2021/11/21 21:35:50;;;;;;;;;108.50;101.00;;;;;;;;5151631;27;14385;-77
2021/11/21 21:38:16;;;;;;;;;101.25;92.75;;;;;;;;5151107;27;12023;-78
2021/11/21 21:40:42;;;;;;;;;103.25;95.00;;;;;;;;5153782;27;23565;-78
2021/11/21 21:43:07;;;;;;;;;94.00;85.75;;;;;;;;5153768;27;10822;-76
2021/11/21 21:45:33;;;;;;;;;101.00;93.00;;;;;;;;5154919;27;24495;-82
2021/11/21 21:47:59;;;;;;;;;92.75;90.25;;;;;;;;5153391;27;23489;-81
2021/11/21 21:50:25;;;;;;;;;94.25;87.25;;;;;;;;5153240;27;24298;-82
2021/11/21 21:52:51;;;;;;;;;86.25;77.50;;;;;;;;5133386;27;12927;-82
2021/11/21 21:55:19;;;;;;;;;88.25;76.75;;;;;;;;5151902;27;13214;-81
2021/11/21 21:57:44;;;;;;;;;84.00;73.75;;;;;;;;5153293;27;11809;-83
2021/11/21 22:00:12;;;;;;;;;83.00;70.25;;;;;;;;5163178;27;10532;-75
2021/11/21 22:02:38;;;;;;;;;80.50;68.00;;;;;;;;5163115;27;10796;-76
2021/11/21 22:05:07;;;;;;;;;78.00;62.25;;;;;;;;5144568;27;15565;-74